Balatonboglar, Hungary
Current Conditions -  °F | °C
As of 2:15 PM on Wednesday 22 Oct 2014 (Local Time) from LHSM Reporting Station
Broken Clouds Broken Clouds  
Wind Chill: 45°   Ceiling: 8300
Heat Index: 48°   Visibility: 6mi
Dew Point: 43°   Wind: 7mph
Humidity: 82%   Direction: 270°W
Pressure: 29.71"   Gusts: NA
Location:  46.77°N, 17.67°E
Report Text: LHSM 221215Z 27006KT 9999 FEW013 BKN083 09/06 Q1006 NOSIG
Loading
Personal Weather Stations






























Interactive Weather Map
Tropical Storm Tracking
New forecast layout! Learn more

10-Day Weather Forecast

Advertisements
Track Severe Weather on mobile